Impacts METAR Board INFO
IDs:

KPHX - Phoenix/Sky Harbor, AZ, US

Updated at: 1337 UTC 25 Feb 2018
Potential Impact None Slight Moderate High
Time25/01Z 25/02Z 25/03Z 25/04Z 25/05Z 25/06Z 25/07Z 25/08Z 25/09Z 25/10Z 25/11Z 25/12Z 25/13Z
VIS10 10 10 10 10 10 10 10 10 10 10 10 10
CIG-- -- -- -- -- -- -- -- -- -- -- -- --
CoverFEWFEWCLRCLRCLRCLRCLRCLRCLRCLRCLRCLRCLR
FltCatVFRVFRVFRVFRVFRVFRVFRVFRVFRVFRVFRVFRVFR
WX--------------------------
WDir0260260180090808080100012090
WSpd5 5 4 3 0 4 4 9 8 4 0 3 5
WGst-- -- -- -- -- -- -- -- -- -- -- -- --
Raw hourly METARs
KPHX 250051Z VRB05KT 10SM FEW250 14/M10 A3011 RMK AO2 SLP194 T01441100 $
KPHX 250151Z 26005KT 10SM FEW250 13/M11 A3010 RMK AO2 SLP189 T01331106 $
KPHX 250251Z 26004KT 10SM CLR 13/M10 A3010 RMK AO2 SLP190 T01281100 55007 $
KPHX 250351Z 18003KT 10SM CLR 11/M08 A3009 RMK AO2 SLP187 T01111083 $
KPHX 250451Z 00000KT 10SM CLR 11/M09 A3009 RMK AO2 SLP185 T01061089 $
KPHX 250551Z 09004KT 10SM CLR 09/M07 A3010 RMK AO2 SLP187 T00941072 10150 20094 55001 $
KPHX 250651Z 08004KT 10SM CLR 09/M07 A3010 RMK AO2 SLP189 T00891072 401560039 $
KPHX 250751Z 08009KT 10SM CLR 08/M08 A3011 RMK AO2 SLP191 T00781078 $
KPHX 250851Z 08008KT 10SM CLR 06/M08 A3011 RMK AO2 SLP192 T00611078 52005 $
KPHX 250951Z 10004KT 10SM CLR 06/M08 A3011 RMK AO2 SLP194 T00611078 $
KPHX 251051Z 00000KT 10SM CLR 06/M07 A3012 RMK AO2 SLP196 T00561072 $
KPHX 251151Z 12003KT 10SM CLR 04/M05 A3013 RMK AO2 SLP202 T00441050 10094 20044 53008 $
KPHX 251251Z 09005KT 10SM CLR 04/M07 A3015 RMK AO2 SLP207 T00441067 $